createdAt,value
2022-12-01T00:00:29.664Z,44.35
2022-12-01T00:02:56.893Z,46.38
2022-12-01T00:05:24.066Z,43.55
2022-12-01T00:07:51.273Z,37.72
2022-12-01T00:10:27.433Z,39.80
2022-12-01T00:12:59.003Z,38.03
2022-12-01T00:15:30.282Z,39.13
2022-12-01T00:17:58.372Z,41.38
2022-12-01T00:20:25.475Z,44.35
2022-12-01T00:22:52.571Z,44.83
2022-12-01T00:25:20.410Z,44.35
2022-12-01T00:27:51.528Z,40.30
2022-12-01T00:30:19.667Z,40.90
2022-12-01T00:32:47.502Z,41.63
2022-12-01T00:35:15.239Z,40.80
2022-12-01T00:37:42.601Z,43.58
2022-12-01T00:40:10.394Z,44.95
2022-12-01T00:42:37.660Z,38.50
2022-12-01T00:45:05.029Z,38.40
2022-12-01T00:47:32.084Z,39.08
2022-12-01T00:49:59.177Z,39.55
2022-12-01T00:52:26.340Z,43.03
2022-12-01T00:54:53.603Z,38.58
2022-12-01T00:57:20.777Z,41.88
2022-12-01T00:59:50.160Z,37.33
2022-12-01T01:02:17.633Z,42.28
2022-12-01T01:04:44.877Z,41.83
2022-12-01T01:07:11.964Z,39.53
2022-12-01T01:09:39.090Z,39.42
2022-12-01T01:12:06.258Z,40.75
2022-12-01T01:14:33.336Z,39.15
2022-12-01T01:17:00.561Z,40.65
2022-12-01T01:19:27.694Z,37.20
2022-12-01T01:21:54.870Z,39.83
2022-12-01T01:24:22.030Z,39.33
2022-12-01T01:26:49.284Z,39.75
2022-12-01T01:29:16.445Z,36.15
2022-12-01T01:31:43.512Z,42.17
2022-12-01T01:34:10.623Z,38.70
2022-12-01T01:36:37.663Z,35.72
2022-12-01T01:39:05.052Z,40.15
2022-12-01T01:41:32.195Z,40.20
2022-12-01T01:44:02.765Z,39.90
2022-12-01T01:46:31.698Z,43.15
2022-12-01T01:49:00.879Z,40.10
2022-12-01T01:51:37.282Z,40.75
2022-12-01T01:54:16.873Z,38.25
2022-12-01T01:56:44.999Z,37.47
2022-12-01T01:59:14.179Z,40.97
2022-12-01T02:01:41.455Z,41.97
2022-12-01T02:04:08.907Z,43.33
2022-12-01T02:06:36.127Z,44.08
2022-12-01T02:09:03.283Z,41.35
2022-12-01T02:11:33.371Z,48.33
2022-12-01T02:14:09.772Z,38.95
2022-12-01T02:16:45.238Z,41.50
2022-12-01T02:19:15.471Z,42.70
2022-12-01T02:21:42.664Z,46.58
2022-12-01T02:24:09.767Z,42.70
2022-12-01T02:26:45.093Z,44.72
2022-12-01T02:29:49.473Z,44.55
2022-12-01T02:32:27.974Z,42.08
2022-12-01T02:35:09.364Z,43.45
2022-12-01T02:37:41.440Z,39.72
2022-12-01T02:40:27.234Z,52.78
2022-12-01T02:43:02.987Z,45.67
2022-12-01T02:45:49.887Z,45.60
2022-12-01T02:48:20.738Z,50.08
2022-12-01T02:50:48.493Z,42.55
2022-12-01T02:53:17.900Z,43.33
2022-12-01T02:55:49.097Z,47.15
2022-12-01T02:58:16.655Z,43.45
2022-12-01T03:00:49.679Z,42.13
2022-12-01T03:03:28.411Z,47.97
2022-12-01T03:06:15.851Z,48.95
2022-12-01T03:08:53.119Z,45.33
2022-12-01T03:11:29.445Z,49.47
2022-12-01T03:14:14.896Z,43.20
2022-12-01T03:17:04.458Z,45.25
2022-12-01T03:19:34.586Z,41.28
2022-12-01T03:22:24.815Z,43.80
2022-12-01T03:24:54.248Z,44.40
2022-12-01T03:27:23.452Z,47.00
2022-12-01T03:29:52.395Z,40.38
2022-12-01T03:32:23.628Z,40.50
2022-12-01T03:34:55.166Z,43.50
2022-12-01T03:37:28.882Z,37.75
2022-12-01T03:40:00.531Z,44.60
2022-12-01T03:42:31.740Z,48.45
2022-12-01T03:45:01.428Z,44.33
2022-12-01T03:47:32.057Z,43.88
2022-12-01T03:50:00.436Z,44.67
2022-12-01T03:52:36.742Z,41.20
2022-12-01T03:55:11.899Z,41.85
2022-12-01T03:57:45.526Z,45.70
2022-12-01T04:00:14.149Z,41.60
2022-12-01T04:02:41.660Z,43.50
2022-12-01T04:05:11.965Z,45.60
2022-12-01T04:07:39.914Z,46.17
2022-12-01T04:10:07.828Z,43.15
2022-12-01T04:12:35.021Z,41.15
2022-12-01T04:15:03.892Z,44.50
2022-12-01T04:17:31.097Z,44.67
2022-12-01T04:19:58.641Z,45.00
2022-12-01T04:22:26.172Z,48.63
2022-12-01T04:24:53.455Z,47.97
2022-12-01T04:27:20.934Z,46.55
2022-12-01T04:29:48.397Z,47.00
2022-12-01T04:32:15.737Z,48.75
2022-12-01T04:34:43.196Z,48.80
2022-12-01T04:37:11.989Z,48.17
2022-12-01T04:39:39.182Z,45.08
2022-12-01T04:42:06.428Z,44.75
2022-12-01T04:44:35.286Z,44.65
2022-12-01T04:47:03.305Z,51.88
2022-12-01T04:49:30.533Z,51.42
2022-12-01T04:51:57.704Z,44.65
2022-12-01T04:54:25.214Z,52.17
2022-12-01T04:56:52.437Z,49.72
2022-12-01T04:59:19.608Z,51.42
2022-12-01T05:01:48.143Z,54.65
2022-12-01T05:04:15.753Z,50.72
2022-12-01T05:06:43.057Z,44.55
2022-12-01T05:09:16.892Z,50.30
2022-12-01T05:11:44.978Z,46.00
2022-12-01T05:14:12.025Z,52.78
2022-12-01T05:16:39.166Z,46.70
2022-12-01T05:19:25.113Z,49.15
2022-12-01T05:21:52.247Z,46.17
2022-12-01T05:24:19.969Z,48.05
2022-12-01T05:26:47.115Z,44.17
2022-12-01T05:29:14.525Z,46.80
2022-12-01T05:31:41.716Z,50.45
2022-12-01T05:34:10.116Z,53.78
2022-12-01T05:36:37.661Z,46.88
2022-12-01T05:39:05.219Z,43.67
2022-12-01T05:41:32.631Z,43.35
2022-12-01T05:44:00.031Z,50.88
2022-12-01T05:46:27.245Z,46.20
2022-12-01T05:48:54.377Z,53.45
2022-12-01T05:51:21.651Z,52.15
2022-12-01T05:53:48.927Z,44.92
2022-12-01T05:56:16.048Z,52.80
2022-12-01T05:58:43.264Z,60.90
2022-12-01T06:01:10.812Z,53.65
2022-12-01T06:03:38.013Z,55.67
2022-12-01T06:06:05.206Z,46.13
2022-12-01T06:08:32.293Z,47.47
2022-12-01T06:10:59.508Z,44.60
2022-12-01T06:13:26.816Z,52.38
2022-12-01T06:16:01.177Z,47.45
2022-12-01T06:18:28.833Z,52.45
2022-12-01T06:20:56.005Z,44.13
2022-12-01T06:23:27.541Z,47.05
2022-12-01T06:25:57.180Z,53.53
2022-12-01T06:28:24.672Z,54.53
2022-12-01T06:30:51.949Z,54.28
2022-12-01T06:33:19.167Z,61.63
2022-12-01T06:35:46.326Z,55.92
2022-12-01T06:38:13.482Z,50.33
2022-12-01T06:40:40.583Z,42.10
2022-12-01T06:43:07.673Z,50.13
2022-12-01T06:45:34.822Z,53.65
2022-12-01T06:48:02.069Z,51.95
2022-12-01T06:50:29.254Z,55.35
2022-12-01T06:52:59.023Z,51.10
2022-12-01T06:55:26.920Z,46.58
2022-12-01T06:57:54.709Z,55.78
2022-12-01T07:00:22.677Z,52.85
2022-12-01T07:02:49.865Z,57.08
2022-12-01T07:05:17.128Z,52.65
2022-12-01T07:07:44.482Z,53.42
2022-12-01T07:10:12.247Z,58.08
2022-12-01T07:12:39.657Z,51.47
2022-12-01T07:15:08.150Z,53.28
2022-12-01T07:17:35.721Z,50.08
2022-12-01T07:20:03.956Z,57.13
2022-12-01T07:22:32.875Z,54.47
2022-12-01T07:25:00.073Z,57.00
2022-12-01T07:27:29.936Z,64.18
2022-12-01T07:29:57.021Z,52.35
2022-12-01T07:32:24.201Z,55.35
2022-12-01T07:34:51.331Z,61.42
2022-12-01T07:37:18.385Z,62.83
2022-12-01T07:39:45.581Z,59.88
2022-12-01T07:42:12.693Z,53.42
2022-12-01T07:44:39.724Z,55.50
2022-12-01T07:47:06.825Z,60.30
2022-12-01T07:49:34.412Z,65.15
2022-12-01T07:52:01.518Z,62.80
2022-12-01T07:54:28.760Z,57.65
2022-12-01T07:56:55.910Z,61.58
2022-12-01T07:59:23.028Z,63.40
2022-12-01T08:01:50.180Z,56.45
2022-12-01T08:04:17.229Z,64.10
2022-12-01T08:06:44.265Z,62.75
2022-12-01T08:09:11.549Z,58.30
2022-12-01T08:11:38.653Z,54.28
2022-12-01T08:14:05.783Z,56.78
2022-12-01T08:16:32.919Z,58.53
2022-12-01T08:19:00.129Z,65.68
2022-12-01T08:21:27.311Z,58.10
2022-12-01T08:23:55.376Z,52.58
2022-12-01T08:26:23.458Z,61.25
2022-12-01T08:28:50.999Z,65.07
2022-12-01T08:31:22.731Z,57.35
2022-12-01T08:33:50.739Z,63.97
2022-12-01T08:36:18.559Z,55.25
2022-12-01T08:38:46.189Z,50.83
2022-12-01T08:41:14.112Z,61.88
2022-12-01T08:43:57.245Z,69.63
2022-12-01T08:46:25.800Z,58.08
2022-12-01T08:48:54.857Z,62.70
2022-12-01T08:51:21.950Z,59.13
2022-12-01T08:53:49.852Z,58.47
2022-12-01T08:56:19.201Z,61.83
2022-12-01T08:58:46.380Z,60.55
2022-12-01T09:01:15.008Z,59.28
2022-12-01T09:03:42.670Z,56.60
2022-12-01T09:06:11.285Z,64.38
2022-12-01T09:08:38.463Z,58.30
2022-12-01T09:11:07.436Z,55.60
2022-12-01T09:13:35.390Z,63.72
2022-12-01T09:16:04.308Z,55.88
2022-12-01T09:18:31.783Z,52.55
2022-12-01T09:20:59.188Z,59.47
2022-12-01T09:23:26.837Z,56.17
2022-12-01T09:25:54.155Z,57.20
2022-12-01T09:28:21.536Z,53.72
2022-12-01T09:30:48.720Z,54.42
2022-12-01T09:33:15.961Z,62.58
2022-12-01T09:35:43.174Z,61.47
2022-12-01T09:38:10.411Z,59.03
2022-12-01T09:40:39.289Z,57.85
2022-12-01T09:43:12.186Z,54.17
2022-12-01T09:45:41.075Z,63.35
2022-12-01T09:48:08.657Z,61.88
2022-12-01T09:50:35.975Z,58.22
2022-12-01T09:53:15.722Z,53.80
2022-12-01T09:55:42.913Z,60.90
2022-12-01T09:58:14.647Z,55.28
2022-12-01T10:00:43.589Z,57.95
2022-12-01T10:03:27.074Z,60.75
2022-12-01T10:06:26.250Z,61.85
2022-12-01T10:08:48.683Z,64.20
2022-12-01T10:11:36.645Z,60.60
2022-12-01T10:14:05.002Z,64.43
2022-12-01T10:16:39.112Z,63.78
2022-12-01T10:19:10.851Z,56.88
2022-12-01T10:21:55.949Z,61.08
2022-12-01T10:24:33.916Z,55.97
2022-12-01T10:27:04.147Z,64.72
2022-12-01T10:29:47.400Z,56.67
2022-12-01T10:32:19.837Z,58.45
2022-12-01T10:34:47.932Z,53.55
2022-12-01T10:37:22.761Z,65.60
2022-12-01T10:39:51.792Z,62.13
2022-12-01T10:42:19.335Z,58.28
2022-12-01T10:44:46.703Z,56.53
2022-12-01T10:47:19.758Z,56.35
2022-12-01T10:49:47.199Z,52.00
2022-12-01T10:52:26.538Z,56.65
2022-12-01T10:54:53.641Z,60.10
2022-12-01T10:57:20.937Z,56.03
2022-12-01T10:59:58.907Z,54.85
2022-12-01T11:02:27.341Z,53.65
2022-12-01T11:04:54.670Z,52.08
2022-12-01T11:07:26.805Z,49.30
2022-12-01T11:10:03.741Z,54.75
2022-12-01T11:12:30.998Z,57.00
2022-12-01T11:14:58.232Z,59.38
2022-12-01T11:17:28.211Z,49.13
2022-12-01T11:19:55.518Z,57.40
2022-12-01T11:22:32.321Z,54.47
2022-12-01T11:25:00.957Z,55.58
2022-12-01T11:27:30.369Z,49.28
2022-12-01T11:29:58.902Z,51.78
2022-12-01T11:32:27.544Z,53.47
2022-12-01T11:34:57.396Z,49.92
2022-12-01T11:37:26.690Z,54.78
2022-12-01T11:39:54.122Z,45.15
2022-12-01T11:42:23.137Z,48.50
2022-12-01T11:45:21.926Z,45.38
2022-12-01T11:48:00.642Z,55.83
2022-12-01T11:50:29.190Z,50.72
2022-12-01T11:52:56.354Z,49.05
2022-12-01T11:55:25.487Z,52.50
2022-12-01T11:57:56.960Z,53.38
2022-12-01T12:00:25.643Z,52.10
2022-12-01T12:02:55.888Z,52.42
2022-12-01T12:05:36.051Z,50.55
2022-12-01T12:08:06.407Z,48.05
2022-12-01T12:10:51.914Z,52.95
2022-12-01T12:13:26.272Z,48.95
2022-12-01T12:16:13.264Z,44.20
2022-12-01T12:18:52.464Z,41.83
2022-12-01T12:21:31.782Z,41.63
2022-12-01T12:23:58.975Z,46.88
2022-12-01T12:26:28.539Z,45.95
2022-12-01T12:29:13.484Z,42.83
2022-12-01T12:31:52.108Z,42.40
2022-12-01T12:34:26.468Z,47.03
2022-12-01T12:37:09.628Z,45.42
2022-12-01T12:39:56.184Z,41.35
2022-12-01T12:42:23.296Z,41.63
2022-12-01T12:44:52.394Z,40.40
2022-12-01T12:47:28.735Z,45.58
2022-12-01T12:49:55.898Z,41.95
2022-12-01T12:52:26.174Z,41.15
2022-12-01T12:54:53.282Z,44.65
2022-12-01T12:57:41.534Z,43.33
2022-12-01T13:00:14.561Z,43.83
2022-12-01T13:02:43.028Z,43.60
2022-12-01T13:05:15.723Z,37.53
2022-12-01T13:08:03.199Z,42.85
2022-12-01T13:10:37.904Z,46.35
2022-12-01T13:13:23.350Z,46.63
2022-12-01T13:15:51.362Z,44.35
2022-12-01T13:18:34.716Z,43.40
2022-12-01T13:21:03.721Z,45.75
2022-12-01T13:23:31.419Z,45.53
2022-12-01T13:26:00.272Z,40.45
2022-12-01T13:28:29.926Z,45.15
2022-12-01T13:31:01.721Z,42.17
2022-12-01T13:33:29.444Z,46.15
2022-12-01T13:36:29.795Z,42.45
2022-12-01T13:38:44.496Z,38.92
2022-12-01T13:41:20.711Z,45.65
2022-12-01T13:43:57.044Z,41.50
2022-12-01T13:46:33.052Z,44.25
2022-12-01T13:49:02.044Z,37.30
2022-12-01T13:51:49.409Z,34.20
2022-12-01T13:54:30.003Z,43.05
2022-12-01T13:57:05.126Z,43.03
2022-12-01T13:59:40.332Z,40.25
2022-12-01T14:02:27.775Z,41.97
2022-12-01T14:04:55.328Z,41.63
2022-12-01T14:07:34.686Z,39.78
2022-12-01T14:10:17.318Z,39.15
2022-12-01T14:12:45.727Z,40.47
2022-12-01T14:15:25.072Z,37.58
2022-12-01T14:18:03.261Z,40.75
2022-12-01T14:20:32.866Z,40.20
2022-12-01T14:23:13.197Z,40.30
2022-12-01T14:25:40.848Z,39.60
2022-12-01T14:28:18.357Z,41.10
2022-12-01T14:30:45.913Z,41.53
2022-12-01T14:33:42.544Z,38.10
2022-12-01T14:36:18.863Z,39.95
2022-12-01T14:38:46.900Z,40.83
2022-12-01T14:41:22.569Z,36.97
2022-12-01T14:44:04.026Z,42.67
2022-12-01T14:46:50.125Z,39.90
2022-12-01T14:49:20.663Z,39.53
2022-12-01T14:51:49.241Z,35.80
2022-12-01T14:54:19.660Z,38.90
2022-12-01T14:56:48.615Z,35.75
2022-12-01T14:59:20.909Z,41.72
2022-12-01T15:01:49.357Z,39.03
2022-12-01T15:04:16.545Z,34.85
2022-12-01T15:06:43.681Z,42.45
2022-12-01T15:09:33.645Z,38.42
2022-12-01T15:12:03.289Z,36.35
2022-12-01T15:14:32.291Z,35.95
2022-12-01T15:16:59.900Z,36.90
2022-12-01T15:19:31.692Z,34.72
2022-12-01T15:21:59.657Z,39.97
2022-12-01T15:24:27.989Z,39.60
2022-12-01T15:27:02.110Z,38.17
2022-12-01T15:29:32.213Z,36.65
2022-12-01T15:32:01.071Z,40.40
2022-12-01T15:34:34.204Z,42.10
2022-12-01T15:37:03.702Z,41.10
2022-12-01T15:39:35.278Z,35.97
2022-12-01T15:42:03.082Z,36.58
2022-12-01T15:44:32.609Z,44.45
2022-12-01T15:47:00.097Z,36.28
2022-12-01T15:49:29.657Z,37.92
2022-12-01T15:52:05.418Z,34.70
2022-12-01T15:54:32.732Z,36.38
2022-12-01T15:57:00.563Z,36.78
2022-12-01T15:59:34.220Z,36.50
2022-12-01T16:02:06.965Z,39.90
2022-12-01T16:04:35.368Z,37.90
2022-12-01T16:07:04.255Z,35.13
2022-12-01T16:09:31.302Z,37.08
2022-12-01T16:12:10.311Z,39.50
2022-12-01T16:14:37.580Z,37.72
2022-12-01T16:17:05.446Z,41.58
2022-12-01T16:19:33.905Z,33.88
2022-12-01T16:22:04.931Z,38.08
2022-12-01T16:24:36.363Z,42.33
2022-12-01T16:27:08.300Z,43.90
2022-12-01T16:29:44.143Z,48.33
2022-12-01T16:32:21.737Z,45.28
2022-12-01T16:34:50.776Z,48.65
2022-12-01T16:37:18.041Z,41.05
2022-12-01T16:39:45.350Z,39.92
2022-12-01T16:42:14.080Z,36.30
2022-12-01T16:44:41.649Z,37.13
2022-12-01T16:47:28.957Z,33.97
2022-12-01T16:49:56.001Z,37.78
2022-12-01T16:55:30.742Z,37.92
2022-12-01T16:57:58.081Z,35.95
2022-12-01T17:00:25.666Z,36.88
2022-12-01T17:02:52.959Z,39.17
2022-12-01T17:05:20.201Z,34.83
2022-12-01T17:07:47.619Z,38.33
2022-12-01T17:10:14.823Z,42.50
2022-12-01T17:12:42.073Z,36.78
2022-12-01T17:15:11.197Z,34.67
2022-12-01T17:17:38.450Z,37.60
2022-12-01T17:20:06.386Z,41.25
2022-12-01T17:22:34.040Z,39.67
2022-12-01T17:25:02.351Z,39.35
2022-12-01T17:27:31.491Z,36.90
2022-12-01T17:30:01.802Z,37.10
2022-12-01T17:32:28.957Z,37.05
2022-12-01T17:34:56.100Z,43.40
2022-12-01T17:37:23.365Z,37.60
2022-12-01T17:39:51.132Z,35.13
2022-12-01T17:42:18.370Z,36.83
2022-12-01T17:44:45.592Z,39.15
2022-12-01T17:47:13.332Z,33.33
2022-12-01T17:49:40.551Z,37.53
2022-12-01T17:52:08.397Z,35.80
2022-12-01T17:54:35.652Z,40.97
2022-12-01T17:57:02.918Z,43.22
2022-12-01T17:59:29.977Z,43.45
2022-12-01T18:01:57.161Z,38.67
2022-12-01T18:04:24.436Z,40.60
2022-12-01T18:06:54.281Z,49.25
2022-12-01T18:09:22.013Z,41.35
2022-12-01T18:11:49.207Z,41.83
2022-12-01T18:14:19.213Z,43.20
2022-12-01T18:16:46.510Z,45.75
2022-12-01T18:19:13.745Z,41.45
2022-12-01T18:21:41.058Z,38.03
2022-12-01T18:24:11.595Z,42.08
2022-12-01T18:26:40.068Z,45.00
2022-12-01T18:29:19.160Z,42.45
2022-12-01T18:31:47.218Z,41.92
2022-12-01T18:34:14.440Z,43.47
2022-12-01T18:36:41.666Z,43.60
2022-12-01T18:39:09.614Z,47.35
2022-12-01T18:41:37.361Z,51.63
2022-12-01T18:44:04.543Z,58.70
2022-12-01T18:46:32.240Z,45.38
2022-12-01T18:49:02.192Z,52.33
2022-12-01T18:51:30.264Z,49.72
2022-12-01T18:53:58.586Z,91.47
2022-12-01T18:56:26.057Z,66.53
2022-12-01T18:58:56.820Z,234.68
2022-12-01T19:01:24.913Z,210.07
2022-12-01T19:03:52.165Z,156.77
2022-12-01T19:06:19.482Z,252.63
2022-12-01T19:08:47.415Z,154.50
2022-12-01T19:11:14.656Z,144.15
2022-12-01T19:13:41.975Z,85.18
2022-12-01T19:16:10.100Z,65.65
2022-12-01T19:18:37.899Z,59.78
2022-12-01T19:21:07.001Z,63.67
2022-12-01T19:23:34.454Z,77.80
2022-12-01T19:26:08.796Z,97.75
2022-12-01T19:28:36.732Z,73.63
2022-12-01T19:31:08.278Z,61.95
2022-12-01T19:33:35.783Z,53.67
2022-12-01T19:36:06.909Z,50.92
2022-12-01T19:38:34.029Z,49.28
2022-12-01T19:41:01.356Z,47.97
2022-12-01T19:43:28.508Z,63.13
2022-12-01T19:45:55.740Z,66.45
2022-12-01T19:48:23.040Z,64.20
2022-12-01T19:50:50.201Z,60.30
2022-12-01T19:55:43.998Z,53.70
2022-12-01T19:58:11.125Z,43.47
2022-12-01T20:00:40.266Z,35.97
2022-12-01T20:03:08.266Z,35.05
2022-12-01T20:05:37.137Z,41.45
2022-12-01T20:08:06.458Z,32.22
2022-12-01T20:10:36.377Z,35.30
2022-12-01T20:13:04.540Z,34.25
2022-12-01T20:15:34.652Z,36.75
2022-12-01T20:18:02.505Z,34.95
2022-12-01T20:20:31.387Z,33.47
2022-12-01T20:23:00.618Z,40.22
2022-12-01T20:25:28.590Z,37.05
2022-12-01T20:27:56.533Z,41.38
2022-12-01T20:30:24.397Z,35.55
2022-12-01T20:32:52.421Z,38.53
2022-12-01T20:35:20.305Z,38.90
2022-12-01T20:37:48.316Z,40.40
2022-12-01T20:40:16.196Z,43.90
2022-12-01T20:42:44.145Z,38.22
2022-12-01T20:45:12.953Z,41.38
2022-12-01T20:47:42.158Z,47.30
2022-12-01T20:50:12.190Z,37.75
2022-12-01T20:52:41.178Z,40.72
2022-12-01T20:55:10.430Z,38.25
2022-12-01T20:57:38.346Z,38.67
2022-12-01T21:00:08.537Z,41.78
2022-12-01T21:02:38.660Z,44.67
2022-12-01T21:05:08.802Z,37.55
2022-12-01T21:07:36.797Z,41.35
2022-12-01T21:10:06.721Z,38.60
2022-12-01T21:12:56.738Z,38.30
2022-12-01T21:15:29.241Z,42.20
2022-12-01T21:18:01.586Z,40.92
2022-12-01T21:20:31.758Z,38.30
2022-12-01T21:23:04.052Z,38.90
2022-12-01T21:25:32.066Z,39.28
2022-12-01T21:28:04.348Z,36.28
2022-12-01T21:30:33.236Z,37.17
2022-12-01T21:33:15.746Z,39.10
2022-12-01T21:35:43.605Z,36.97
2022-12-01T21:38:21.635Z,39.33
2022-12-01T21:40:50.544Z,39.83
2022-12-01T21:43:20.684Z,41.90
2022-12-01T21:45:52.952Z,37.45
2022-12-01T21:48:27.462Z,38.75
2022-12-01T21:51:00.009Z,38.45
2022-12-01T21:53:29.960Z,43.42
2022-12-01T21:56:00.105Z,38.00
2022-12-01T21:58:31.292Z,41.67
2022-12-01T22:01:02.743Z,41.45
2022-12-01T22:03:30.669Z,45.38
2022-12-01T22:11:23.048Z,42.47
2022-12-01T22:14:10.861Z,39.97
2022-12-01T22:16:43.368Z,39.50
2022-12-01T22:19:17.936Z,43.30
2022-12-01T22:21:50.275Z,39.58
2022-12-01T22:24:24.686Z,45.75
2022-12-01T22:27:14.793Z,46.40
2022-12-01T22:29:47.206Z,40.60
2022-12-01T22:32:15.146Z,38.20
2022-12-01T22:34:45.334Z,46.47
2022-12-01T22:37:22.057Z,46.38
2022-12-01T22:39:54.418Z,48.97
2022-12-01T22:42:26.733Z,53.47
2022-12-01T22:44:56.750Z,50.22
2022-12-01T22:47:27.035Z,49.30
2022-12-01T22:49:55.000Z,57.50
2022-12-01T22:52:31.735Z,55.10
2022-12-01T22:54:59.705Z,64.10
2022-12-01T22:57:32.931Z,54.60
2022-12-01T23:00:16.360Z,59.97
2022-12-01T23:02:45.588Z,57.75
2022-12-01T23:05:24.403Z,61.67
2022-12-01T23:07:54.673Z,59.80
2022-12-01T23:10:24.874Z,61.60
2022-12-01T23:12:57.044Z,61.85
2022-12-01T23:15:32.683Z,62.22
2022-12-01T23:18:14.997Z,59.38
2022-12-01T23:20:45.323Z,60.15
2022-12-01T23:23:17.826Z,62.60
2022-12-01T23:25:45.805Z,58.83
2022-12-01T23:28:13.576Z,62.65
2022-12-01T23:30:42.432Z,60.97
2022-12-01T23:33:09.494Z,62.58
2022-12-01T23:35:40.125Z,56.92
2022-12-01T23:38:09.989Z,73.32
2022-12-01T23:40:37.115Z,62.50
2022-12-01T23:43:19.551Z,64.68
2022-12-01T23:45:46.976Z,72.55
2022-12-01T23:48:16.925Z,60.10
2022-12-01T23:50:43.971Z,68.85
2022-12-01T23:55:49.145Z,62.35
2022-12-01T23:58:16.238Z,68.32
